createdAt,value
2023-02-05T00:02:37.103Z,22.40
2023-02-05T00:07:40.099Z,23.50
2023-02-05T00:12:43.291Z,21.80
2023-02-05T00:17:47.867Z,21.13
2023-02-05T00:22:50.967Z,19.63
2023-02-05T00:27:54.409Z,21.97
2023-02-05T00:32:58.795Z,18.63
2023-02-05T00:38:01.749Z,17.10
2023-02-05T00:43:05.010Z,14.67
2023-02-05T00:48:09.489Z,14.33
2023-02-05T00:53:12.390Z,17.27
2023-02-05T00:58:15.788Z,14.97
2023-02-05T01:03:21.331Z,15.87
2023-02-05T01:08:24.904Z,20.43
2023-02-05T01:13:28.411Z,20.90
2023-02-05T01:18:33.420Z,21.50
2023-02-05T01:23:36.486Z,23.47
2023-02-05T01:28:40.176Z,24.97
2023-02-05T01:33:45.248Z,23.60
2023-02-05T01:38:48.982Z,28.00
2023-02-05T01:44:10.444Z,28.70
2023-02-05T01:49:18.951Z,27.43
2023-02-05T01:54:25.590Z,31.17
2023-02-05T01:59:31.315Z,35.80
2023-02-05T02:04:40.421Z,32.50
2023-02-05T02:09:45.559Z,32.37
2023-02-05T02:14:52.737Z,26.80
2023-02-05T02:20:01.771Z,24.07
2023-02-05T02:25:22.053Z,22.80
2023-02-05T02:30:32.498Z,20.93
2023-02-05T02:35:44.592Z,20.83
2023-02-05T02:40:52.808Z,18.07
2023-02-05T02:46:04.192Z,16.17
2023-02-05T02:51:10.274Z,13.67
2023-02-05T02:56:15.960Z,12.80
2023-02-05T03:01:26.782Z,10.73
2023-02-05T03:06:32.116Z,9.87
2023-02-05T03:11:35.756Z,7.43
2023-02-05T03:16:41.147Z,5.97
2023-02-05T03:21:48.900Z,6.50
2023-02-05T03:26:52.983Z,6.00
2023-02-05T03:32:14.821Z,6.17
2023-02-05T03:37:24.927Z,8.00
2023-02-05T03:42:37.651Z,5.57
2023-02-05T03:47:56.398Z,7.80
2023-02-05T03:53:07.511Z,4.03
2023-02-05T03:58:16.230Z,5.67
2023-02-05T04:03:23.401Z,6.67
2023-02-05T04:08:27.292Z,7.33
2023-02-05T04:13:30.982Z,6.57
2023-02-05T04:18:36.159Z,8.73
2023-02-05T04:23:39.745Z,5.33
2023-02-05T04:28:43.816Z,7.87
2023-02-05T04:33:49.133Z,10.43
2023-02-05T04:38:54.445Z,10.97
2023-02-05T04:43:58.661Z,8.30
2023-02-05T04:49:03.208Z,11.03
2023-02-05T04:54:06.351Z,11.27
2023-02-05T04:59:09.279Z,11.67
2023-02-05T05:04:13.676Z,9.07
2023-02-05T05:09:17.012Z,12.30
2023-02-05T05:14:20.246Z,7.67
2023-02-05T05:19:24.681Z,4.17
2023-02-05T05:24:27.961Z,3.77
2023-02-05T05:29:30.948Z,2.80
2023-02-05T05:34:35.373Z,11.77
2023-02-05T05:39:56.159Z,6.13
2023-02-05T05:44:59.117Z,7.10
2023-02-05T05:50:03.568Z,5.20
2023-02-05T05:55:07.434Z,7.43
2023-02-05T06:00:12.334Z,9.90
2023-02-05T06:05:16.980Z,12.57
2023-02-05T06:10:20.195Z,10.03
2023-02-05T06:15:23.492Z,8.17
2023-02-05T06:20:27.909Z,12.83
2023-02-05T06:25:30.877Z,8.17
2023-02-05T06:30:33.976Z,7.37
2023-02-05T06:35:38.555Z,8.60
2023-02-05T06:40:41.636Z,10.53
2023-02-05T06:45:44.657Z,10.27
2023-02-05T06:50:49.381Z,7.53
2023-02-05T06:55:52.348Z,10.73
2023-02-05T07:00:55.660Z,9.40
2023-02-05T07:06:04.560Z,12.27
2023-02-05T07:11:07.616Z,7.40
2023-02-05T07:16:10.711Z,8.20
2023-02-05T07:21:17.290Z,6.80
2023-02-05T07:26:20.384Z,8.80
2023-02-05T07:31:23.509Z,8.20
2023-02-05T07:36:28.236Z,13.30
2023-02-05T07:41:31.280Z,7.83
2023-02-05T07:46:34.408Z,5.87
2023-02-05T07:51:38.898Z,11.10
2023-02-05T07:56:41.998Z,10.47
2023-02-05T08:01:45.112Z,14.13
2023-02-05T08:06:49.623Z,12.10
2023-02-05T08:11:52.690Z,10.33
2023-02-05T08:16:55.756Z,12.80
2023-02-05T08:22:00.173Z,12.47
2023-02-05T08:27:03.192Z,9.73
2023-02-05T08:32:06.299Z,11.10
2023-02-05T08:37:10.883Z,12.83
2023-02-05T08:42:13.996Z,15.17
2023-02-05T08:47:20.484Z,19.60
2023-02-05T08:52:24.897Z,14.70
2023-02-05T08:57:30.034Z,21.53
2023-02-05T09:02:33.059Z,18.73
2023-02-05T09:07:37.844Z,21.23
2023-02-05T09:12:41.550Z,18.37
2023-02-05T09:17:45.502Z,17.10
2023-02-05T09:22:50.977Z,20.70
2023-02-05T09:27:54.241Z,22.17
2023-02-05T09:32:57.284Z,15.87
2023-02-05T09:38:03.385Z,18.40
2023-02-05T09:43:20.330Z,28.63
2023-02-05T09:48:58.822Z,16.03
2023-02-05T09:54:11.530Z,26.40
2023-02-05T09:59:18.342Z,22.67
2023-02-05T10:04:21.529Z,15.57
2023-02-05T10:09:55.876Z,16.27
2023-02-05T10:15:15.813Z,12.93
2023-02-05T10:20:32.811Z,20.87
2023-02-05T10:26:03.388Z,14.00
2023-02-05T10:31:15.470Z,22.07
2023-02-05T10:36:23.374Z,17.03
2023-02-05T10:41:33.203Z,16.57
2023-02-05T10:46:38.480Z,12.33
2023-02-05T10:51:43.765Z,19.97
2023-02-05T10:56:49.025Z,14.50
2023-02-05T11:01:53.206Z,19.27
2023-02-05T11:06:56.227Z,20.20
2023-02-05T11:12:06.591Z,17.77
2023-02-05T11:17:21.666Z,16.37
2023-02-05T11:22:30.150Z,17.67
2023-02-05T11:27:35.599Z,15.30
2023-02-05T11:32:39.733Z,12.37
2023-02-05T11:37:43.045Z,22.07
2023-02-05T11:42:59.291Z,24.80
2023-02-05T11:48:05.323Z,17.27
2023-02-05T11:53:16.481Z,14.97
2023-02-05T11:58:36.535Z,16.20
2023-02-05T12:03:40.356Z,14.47
2023-02-05T12:08:49.281Z,14.80
2023-02-05T12:14:06.288Z,18.30
2023-02-05T12:19:18.016Z,21.17
2023-02-05T12:24:40.637Z,16.00
2023-02-05T12:30:09.583Z,18.80
2023-02-05T12:35:26.890Z,18.00
2023-02-05T12:40:45.264Z,14.20
2023-02-05T12:45:56.528Z,18.87
2023-02-05T12:51:09.554Z,13.57
2023-02-05T12:56:30.557Z,16.47
2023-02-05T13:01:42.134Z,13.53
2023-02-05T13:06:51.332Z,19.97
2023-02-05T13:12:00.155Z,20.77
2023-02-05T13:17:07.873Z,17.60
2023-02-05T13:22:35.883Z,12.73
2023-02-05T13:28:00.849Z,20.43
2023-02-05T13:33:08.129Z,17.27
2023-02-05T13:38:28.684Z,15.30
2023-02-05T13:44:00.663Z,16.07
2023-02-05T13:49:50.745Z,12.43
2023-02-05T13:55:24.049Z,23.17
2023-02-05T14:00:28.493Z,16.87
2023-02-05T14:05:36.017Z,17.33
2023-02-05T14:10:42.806Z,17.20
2023-02-05T14:15:46.666Z,19.77
2023-02-05T14:20:51.065Z,16.47
2023-02-05T14:26:11.643Z,18.80
2023-02-05T14:31:48.536Z,18.90
2023-02-05T14:36:53.196Z,19.13
2023-02-05T14:41:59.198Z,16.87
2023-02-05T14:47:06.107Z,20.83
2023-02-05T14:52:27.339Z,19.00
2023-02-05T14:57:40.549Z,18.37
2023-02-05T15:03:22.959Z,20.33
2023-02-05T15:08:41.516Z,21.07
2023-02-05T15:14:24.484Z,26.10
2023-02-05T15:19:29.069Z,25.73
2023-02-05T15:24:35.176Z,23.73
2023-02-05T15:29:43.624Z,22.23
2023-02-05T15:34:53.691Z,23.00
2023-02-05T15:39:59.240Z,25.40
2023-02-05T15:45:18.077Z,28.93
2023-02-05T15:50:22.616Z,21.97
2023-02-05T15:55:28.967Z,27.17
2023-02-05T16:00:35.138Z,19.80
2023-02-05T16:05:39.734Z,27.27
2023-02-05T16:10:54.349Z,27.00
2023-02-05T16:16:04.104Z,25.57
2023-02-05T16:21:17.767Z,25.80
2023-02-05T16:26:24.556Z,27.17
2023-02-05T16:31:29.877Z,26.80
2023-02-05T16:36:38.235Z,23.00
2023-02-05T16:41:45.618Z,24.03
2023-02-05T16:47:06.958Z,33.47
2023-02-05T16:52:41.931Z,28.67
2023-02-05T16:57:47.560Z,31.60
2023-02-05T17:02:54.085Z,29.33
2023-02-05T17:08:01.644Z,25.67
2023-02-05T17:13:06.112Z,27.10
2023-02-05T17:18:27.770Z,24.63
2023-02-05T17:23:32.196Z,26.90
2023-02-05T17:28:40.168Z,34.27
2023-02-05T17:33:43.327Z,22.27
2023-02-05T17:38:48.836Z,30.93
2023-02-05T17:43:51.992Z,30.23
2023-02-05T17:48:55.374Z,26.87
2023-02-05T17:53:59.930Z,28.90
2023-02-05T17:59:03.104Z,24.97
2023-02-05T18:04:06.585Z,23.83
2023-02-05T18:09:12.503Z,29.83
2023-02-05T18:14:16.020Z,26.93
2023-02-05T18:19:19.096Z,30.67
2023-02-05T18:24:23.552Z,31.10
2023-02-05T18:29:27.782Z,30.03
2023-02-05T18:34:30.772Z,23.77
2023-02-05T18:39:35.306Z,23.13
2023-02-05T18:44:38.399Z,22.97
2023-02-05T18:49:41.389Z,24.70
2023-02-05T18:54:45.838Z,30.77
2023-02-05T18:59:49.597Z,20.37
2023-02-05T19:04:56.034Z,29.97
2023-02-05T19:10:01.572Z,26.97
2023-02-05T19:15:05.034Z,26.00
2023-02-05T19:20:08.723Z,28.70
2023-02-05T19:25:13.376Z,25.23
2023-02-05T19:30:16.833Z,32.83
2023-02-05T19:35:20.047Z,24.90
2023-02-05T19:40:24.683Z,27.67
2023-02-05T19:45:28.028Z,35.57
2023-02-05T19:50:31.056Z,30.50
2023-02-05T19:55:36.100Z,26.07
2023-02-05T20:00:39.397Z,29.23
2023-02-05T20:05:42.682Z,26.07
2023-02-05T20:10:47.195Z,29.27
2023-02-05T20:15:50.271Z,28.93
2023-02-05T20:20:53.293Z,23.80
2023-02-05T20:25:58.851Z,24.27
2023-02-05T20:31:19.733Z,29.97
2023-02-05T20:36:23.172Z,26.93
2023-02-05T20:41:34.561Z,30.10
2023-02-05T20:46:37.596Z,30.70
2023-02-05T20:51:40.979Z,21.50
2023-02-05T20:56:45.576Z,31.93
2023-02-05T21:01:48.646Z,37.43
2023-02-05T21:06:53.580Z,24.50
2023-02-05T21:11:58.055Z,25.63
2023-02-05T21:17:01.142Z,28.10
2023-02-05T21:22:04.256Z,35.77
2023-02-05T21:27:08.723Z,26.83
2023-02-05T21:32:11.904Z,26.63
2023-02-05T21:37:15.002Z,25.57
2023-02-05T21:42:19.437Z,30.77
2023-02-05T21:47:22.515Z,27.03
2023-02-05T21:52:25.787Z,22.07
2023-02-05T21:57:30.385Z,34.47
2023-02-05T22:02:33.390Z,28.77
2023-02-05T22:07:36.545Z,20.77
2023-02-05T22:12:41.234Z,21.60
2023-02-05T22:17:44.472Z,23.27
2023-02-05T22:22:47.478Z,32.00
2023-02-05T22:27:52.237Z,27.20
2023-02-05T22:32:55.223Z,23.60
2023-02-05T22:37:58.192Z,35.07
2023-02-05T22:43:02.606Z,27.63
2023-02-05T22:48:08.213Z,29.70
2023-02-05T22:53:12.077Z,24.97
2023-02-05T22:58:16.830Z,27.37
2023-02-05T23:03:19.851Z,29.90
2023-02-05T23:08:23.087Z,35.00
2023-02-05T23:13:27.775Z,32.63
2023-02-05T23:18:30.936Z,26.37
2023-02-05T23:23:34.031Z,26.03
2023-02-05T23:28:38.593Z,32.90
2023-02-05T23:33:41.563Z,29.03
2023-02-05T23:38:44.722Z,32.10
2023-02-05T23:43:49.182Z,28.37
2023-02-05T23:48:52.135Z,28.23
2023-02-05T23:53:55.294Z,19.07
2023-02-05T23:59:00.289Z,25.90
